sensor_id;sensor_type;location;lat;lon;timestamp;pressure;altitude;pressure_sealevel;temperature;humidity
51259;BME280;37327;54.254;18.504;2023-03-07T00:00:33;99467.57;;;-3.59;86.53
51259;BME280;37327;54.254;18.504;2023-03-07T00:03:50;99470.31;;;-3.60;86.57
51259;BME280;37327;54.254;18.504;2023-03-07T00:07:08;99463.48;;;-3.63;86.87
51259;BME280;37327;54.254;18.504;2023-03-07T00:10:25;99454.85;;;-3.65;87.24
51259;BME280;37327;54.254;18.504;2023-03-07T00:13:43;99453.88;;;-3.64;87.71
51259;BME280;37327;54.254;18.504;2023-03-07T00:17:00;99448.59;;;-3.64;88.02
51259;BME280;37327;54.254;18.504;2023-03-07T00:20:18;99451.96;;;-3.62;88.22
51259;BME280;37327;54.254;18.504;2023-03-07T00:23:37;99443.20;;;-3.62;88.39
51259;BME280;37327;54.254;18.504;2023-03-07T00:26:55;99437.10;;;-3.63;88.62
51259;BME280;37327;54.254;18.504;2023-03-07T00:30:13;99441.55;;;-3.63;88.83
51259;BME280;37327;54.254;18.504;2023-03-07T00:33:30;99442.38;;;-3.63;89.04
51259;BME280;37327;54.254;18.504;2023-03-07T00:36:48;99433.63;;;-3.63;89.15
51259;BME280;37327;54.254;18.504;2023-03-07T00:40:07;99436.48;;;-3.66;89.28
51259;BME280;37327;54.254;18.504;2023-03-07T00:43:25;99435.66;;;-3.67;89.55
51259;BME280;37327;54.254;18.504;2023-03-07T00:46:43;99422.58;;;-3.68;89.73
51259;BME280;37327;54.254;18.504;2023-03-07T00:50:00;99421.74;;;-3.69;89.87
51259;BME280;37327;54.254;18.504;2023-03-07T00:53:19;99412.24;;;-3.71;90.02
51259;BME280;37327;54.254;18.504;2023-03-07T00:56:36;99421.25;;;-3.74;90.30
51259;BME280;37327;54.254;18.504;2023-03-07T00:59:54;99408.06;;;-3.74;90.43
51259;BME280;37327;54.254;18.504;2023-03-07T01:03:11;99406.26;;;-3.73;90.55
51259;BME280;37327;54.254;18.504;2023-03-07T01:06:31;99409.75;;;-3.73;90.56
51259;BME280;37327;54.254;18.504;2023-03-07T01:09:50;99403.50;;;-3.72;90.67
51259;BME280;37327;54.254;18.504;2023-03-07T01:13:09;99394.77;;;-3.72;90.81
51259;BME280;37327;54.254;18.504;2023-03-07T01:16:30;99379.77;;;-3.72;90.78
51259;BME280;37327;54.254;18.504;2023-03-07T01:19:47;99378.10;;;-3.73;90.83
51259;BME280;37327;54.254;18.504;2023-03-07T01:23:05;99381.68;;;-3.74;90.98
51259;BME280;37327;54.254;18.504;2023-03-07T01:26:28;99372.82;;;-3.73;91.12
51259;BME280;37327;54.254;18.504;2023-03-07T01:29:46;99369.32;;;-3.73;91.40
51259;BME280;37327;54.254;18.504;2023-03-07T01:33:04;99363.94;;;-3.72;91.51
51259;BME280;37327;54.254;18.504;2023-03-07T01:36:26;99363.94;;;-3.72;91.72
51259;BME280;37327;54.254;18.504;2023-03-07T01:39:52;99365.63;;;-3.71;91.83
51259;BME280;37327;54.254;18.504;2023-03-07T01:46:50;99350.74;;;-3.72;91.88
51259;BME280;37327;54.254;18.504;2023-03-07T01:50:16;99349.09;;;-3.73;91.86
51259;BME280;37327;54.254;18.504;2023-03-07T01:53:34;99348.22;;;-3.73;92.03
51259;BME280;37327;54.254;18.504;2023-03-07T01:56:52;99336.73;;;-3.72;92.05
51259;BME280;37327;54.254;18.504;2023-03-07T02:00:15;99331.67;;;-3.75;92.10
51259;BME280;37327;54.254;18.504;2023-03-07T02:07:15;99333.60;;;-3.78;92.38
51259;BME280;37327;54.254;18.504;2023-03-07T02:10:34;99330.13;;;-3.78;92.47
51259;BME280;37327;54.254;18.504;2023-03-07T02:13:53;99331.07;;;-3.79;92.65
51259;BME280;37327;54.254;18.504;2023-03-07T02:17:10;99324.84;;;-3.78;92.71
51259;BME280;37327;54.254;18.504;2023-03-07T02:20:38;99318.86;;;-3.80;92.86
51259;BME280;37327;54.254;18.504;2023-03-07T02:24:07;99328.58;;;-3.81;92.86
51259;BME280;37327;54.254;18.504;2023-03-07T02:27:27;99322.44;;;-3.81;92.95
51259;BME280;37327;54.254;18.504;2023-03-07T02:34:21;99322.70;;;-3.84;93.02
51259;BME280;37327;54.254;18.504;2023-03-07T02:37:39;99319.34;;;-3.86;93.15
51259;BME280;37327;54.254;18.504;2023-03-07T02:40:58;99312.37;;;-3.87;93.27
51259;BME280;37327;54.254;18.504;2023-03-07T02:44:15;99314.41;;;-3.91;93.48
51259;BME280;37327;54.254;18.504;2023-03-07T02:47:32;99310.21;;;-3.93;93.64
51259;BME280;37327;54.254;18.504;2023-03-07T02:50:50;99310.21;;;-3.93;93.83
51259;BME280;37327;54.254;18.504;2023-03-07T02:54:07;99297.03;;;-3.93;93.98
51259;BME280;37327;54.254;18.504;2023-03-07T02:57:24;99295.11;;;-3.91;94.15
51259;BME280;37327;54.254;18.504;2023-03-07T03:00:42;99291.64;;;-3.92;94.14
51259;BME280;37327;54.254;18.504;2023-03-07T03:03:59;99292.70;;;-3.94;94.15
51259;BME280;37327;54.254;18.504;2023-03-07T03:07:17;99291.15;;;-3.97;94.27
51259;BME280;37327;54.254;18.504;2023-03-07T03:10:34;99291.98;;;-3.97;94.55
51259;BME280;37327;54.254;18.504;2023-03-07T03:13:52;99287.68;;;-3.98;94.77
51259;BME280;37327;54.254;18.504;2023-03-07T03:17:10;99278.08;;;-3.99;94.90
51259;BME280;37327;54.254;18.504;2023-03-07T03:20:27;99276.41;;;-4.00;94.97
51259;BME280;37327;54.254;18.504;2023-03-07T03:23:44;99279.05;;;-4.00;95.04
51259;BME280;37327;54.254;18.504;2023-03-07T03:27:02;99275.59;;;-4.00;95.22
51259;BME280;37327;54.254;18.504;2023-03-07T03:30:21;99266.81;;;-4.01;95.37
51259;BME280;37327;54.254;18.504;2023-03-07T03:33:38;99273.06;;;-4.02;95.36
51259;BME280;37327;54.254;18.504;2023-03-07T03:36:56;99259.16;;;-4.04;95.53
51259;BME280;37327;54.254;18.504;2023-03-07T03:40:13;99257.35;;;-4.03;95.65
51259;BME280;37327;54.254;18.504;2023-03-07T03:43:33;99254.72;;;-4.03;95.80
51259;BME280;37327;54.254;18.504;2023-03-07T03:46:51;99242.48;;;-4.04;96.03
51259;BME280;37327;54.254;18.504;2023-03-07T03:50:11;99239.02;;;-4.05;96.16
51259;BME280;37327;54.254;18.504;2023-03-07T03:53:29;99231.94;;;-4.04;96.32
51259;BME280;37327;54.254;18.504;2023-03-07T03:56:47;99232.09;;;-4.06;96.42
51259;BME280;37327;54.254;18.504;2023-03-07T04:00:06;99230.27;;;-4.05;96.59
51259;BME280;37327;54.254;18.504;2023-03-07T04:03:25;99232.09;;;-4.06;96.74
51259;BME280;37327;54.254;18.504;2023-03-07T04:06:42;99230.38;;;-4.07;96.91
51259;BME280;37327;54.254;18.504;2023-03-07T04:09:59;99226.20;;;-4.09;96.95
51259;BME280;37327;54.254;18.504;2023-03-07T04:13:17;99224.52;;;-4.10;97.16
51259;BME280;37327;54.254;18.504;2023-03-07T04:16:34;99223.68;;;-4.11;97.36
51259;BME280;37327;54.254;18.504;2023-03-07T04:19:51;99221.04;;;-4.11;97.42
51259;BME280;37327;54.254;18.504;2023-03-07T04:23:09;99215.77;;;-4.11;97.62
51259;BME280;37327;54.254;18.504;2023-03-07T04:26:26;99214.83;;;-4.10;97.77
51259;BME280;37327;54.254;18.504;2023-03-07T04:29:43;99199.96;;;-4.11;97.83
51259;BME280;37327;54.254;18.504;2023-03-07T04:33:01;99203.57;;;-4.12;97.87
51259;BME280;37327;54.254;18.504;2023-03-07T04:36:19;99198.41;;;-4.13;97.93
51259;BME280;37327;54.254;18.504;2023-03-07T04:39:37;99193.25;;;-4.15;97.94
51259;BME280;37327;54.254;18.504;2023-03-07T04:42:54;99188.09;;;-4.17;98.02
51259;BME280;37327;54.254;18.504;2023-03-07T04:46:17;99192.65;;;-4.19;98.02
51259;BME280;37327;54.254;18.504;2023-03-07T04:49:36;99177.10;;;-4.22;98.09
51259;BME280;37327;54.254;18.504;2023-03-07T04:52:53;99180.55;;;-4.21;98.11
51259;BME280;37327;54.254;18.504;2023-03-07T04:56:11;99175.40;;;-4.23;98.12
51259;BME280;37327;54.254;18.504;2023-03-07T04:59:32;99182.48;;;-4.23;98.16
51259;BME280;37327;54.254;18.504;2023-03-07T05:02:57;99175.52;;;-4.24;98.29
51259;BME280;37327;54.254;18.504;2023-03-07T05:06:18;99176.38;;;-4.24;98.33
51259;BME280;37327;54.254;18.504;2023-03-07T05:09:36;99167.61;;;-4.24;98.46
51259;BME280;37327;54.254;18.504;2023-03-07T05:12:53;99163.77;;;-4.20;98.60
51259;BME280;37327;54.254;18.504;2023-03-07T05:16:10;99158.16;;;-4.15;98.64
51259;BME280;37327;54.254;18.504;2023-03-07T05:19:27;99148.22;;;-4.12;98.73
51259;BME280;37327;54.254;18.504;2023-03-07T05:22:46;99141.96;;;-4.11;98.68
51259;BME280;37327;54.254;18.504;2023-03-07T05:26:04;99140.88;;;-4.08;98.66
51259;BME280;37327;54.254;18.504;2023-03-07T05:29:21;99133.67;;;-4.06;98.54
51259;BME280;37327;54.254;18.504;2023-03-07T05:32:39;99133.56;;;-4.05;98.32
51259;BME280;37327;54.254;18.504;2023-03-07T05:36:00;99124.71;;;-4.04;98.42
51259;BME280;37327;54.254;18.504;2023-03-07T05:39:19;99125.42;;;-4.02;98.42
51259;BME280;37327;54.254;18.504;2023-03-07T05:42:36;99123.23;;;-3.97;98.39
51259;BME280;37327;54.254;18.504;2023-03-07T05:45:54;99126.48;;;-3.93;98.22
51259;BME280;37327;54.254;18.504;2023-03-07T05:49:11;99121.08;;;-3.91;98.16
51259;BME280;37327;54.254;18.504;2023-03-07T05:52:28;99113.88;;;-3.89;98.12
51259;BME280;37327;54.254;18.504;2023-03-07T05:55:46;99118.93;;;-3.86;98.07
51259;BME280;37327;54.254;18.504;2023-03-07T05:59:03;99122.28;;;-3.84;97.96
51259;BME280;37327;54.254;18.504;2023-03-07T06:02:25;99114.36;;;-3.84;97.87
51259;BME280;37327;54.254;18.504;2023-03-07T06:05:42;99113.38;;;-3.83;97.92
51259;BME280;37327;54.254;18.504;2023-03-07T06:08:59;99102.83;;;-3.83;97.99
51259;BME280;37327;54.254;18.504;2023-03-07T06:12:17;99097.33;;;-3.80;98.16
51259;BME280;37327;54.254;18.504;2023-03-07T06:15:34;99103.01;;;-3.64;98.80
51259;BME280;37327;54.254;18.504;2023-03-07T06:18:51;99081.43;;;-3.37;98.88
51259;BME280;37327;54.254;18.504;2023-03-07T06:22:08;99078.21;;;-2.98;99.01
51259;BME280;37327;54.254;18.504;2023-03-07T06:25:26;99075.02;;;-2.71;97.51
51259;BME280;37327;54.254;18.504;2023-03-07T06:28:43;99071.01;;;-2.65;96.15
51259;BME280;37327;54.254;18.504;2023-03-07T06:32:01;99068.63;;;-2.68;95.61
51259;BME280;37327;54.254;18.504;2023-03-07T06:35:18;99061.39;;;-2.66;95.50
51259;BME280;37327;54.254;18.504;2023-03-07T06:38:36;99066.34;;;-2.52;95.64
51259;BME280;37327;54.254;18.504;2023-03-07T06:41:53;99061.91;;;-2.42;95.11
51259;BME280;37327;54.254;18.504;2023-03-07T06:45:11;99055.79;;;-2.32;95.06
51259;BME280;37327;54.254;18.504;2023-03-07T06:48:29;99044.86;;;-2.18;94.58
51259;BME280;37327;54.254;18.504;2023-03-07T06:51:46;99046.52;;;-2.17;93.95
51259;BME280;37327;54.254;18.504;2023-03-07T06:55:06;99037.90;;;-2.09;94.08
51259;BME280;37327;54.254;18.504;2023-03-07T06:58:23;99030.15;;;-1.91;93.90
51259;BME280;37327;54.254;18.504;2023-03-07T07:01:41;99025.00;;;-1.73;93.42
51259;BME280;37327;54.254;18.504;2023-03-07T07:04:59;99017.88;;;-1.53;92.46
51259;BME280;37327;54.254;18.504;2023-03-07T07:08:18;99007.70;;;-1.38;91.83
51259;BME280;37327;54.254;18.504;2023-03-07T07:11:36;99006.99;;;-1.31;90.98
51259;BME280;37327;54.254;18.504;2023-03-07T07:14:54;98990.80;;;-1.28;90.35
51259;BME280;37327;54.254;18.504;2023-03-07T07:18:12;98983.30;;;-1.32;89.77
51259;BME280;37327;54.254;18.504;2023-03-07T07:21:29;98986.79;;;-1.42;89.29
51259;BME280;37327;54.254;18.504;2023-03-07T07:24:46;98980.55;;;-1.50;88.92
51259;BME280;37327;54.254;18.504;2023-03-07T07:28:04;98978.30;;;-1.55;89.17
51259;BME280;37327;54.254;18.504;2023-03-07T07:31:21;98969.98;;;-1.60;89.00
51259;BME280;37327;54.254;18.504;2023-03-07T07:34:39;98970.50;;;-1.56;89.04
51259;BME280;37327;54.254;18.504;2023-03-07T07:37:56;98943.63;;;-1.52;88.31
51259;BME280;37327;54.254;18.504;2023-03-07T07:41:14;98937.63;;;-1.44;88.24
51259;BME280;37327;54.254;18.504;2023-03-07T07:44:31;98932.96;;;-1.23;88.56
51259;BME280;37327;54.254;18.504;2023-03-07T07:47:49;98923.52;;;-0.97;87.46
51259;BME280;37327;54.254;18.504;2023-03-07T07:51:06;98913.91;;;-0.81;86.70
51259;BME280;37327;54.254;18.504;2023-03-07T07:54:25;98903.04;;;-0.77;85.66
51259;BME280;37327;54.254;18.504;2023-03-07T07:57:44;98905.38;;;-0.74;85.73
51259;BME280;37327;54.254;18.504;2023-03-07T08:01:12;98907.66;;;-0.80;84.91
51259;BME280;37327;54.254;18.504;2023-03-07T08:04:30;98905.43;;;-0.84;84.66
51259;BME280;37327;54.254;18.504;2023-03-07T08:07:48;98893.46;;;-0.88;83.93
51259;BME280;37327;54.254;18.504;2023-03-07T08:11:06;98897.66;;;-0.86;84.62
51259;BME280;37327;54.254;18.504;2023-03-07T08:14:24;98893.78;;;-0.91;83.71
51259;BME280;37327;54.254;18.504;2023-03-07T08:17:43;98885.57;;;-0.98;83.58
51259;BME280;37327;54.254;18.504;2023-03-07T08:21:00;98881.69;;;-1.04;83.52
51259;BME280;37327;54.254;18.504;2023-03-07T08:24:18;98880.04;;;-1.05;83.94
51259;BME280;37327;54.254;18.504;2023-03-07T08:27:35;98868.62;;;-1.05;83.78
51259;BME280;37327;54.254;18.504;2023-03-07T08:30:52;98865.28;;;-1.07;82.88
51259;BME280;37327;54.254;18.504;2023-03-07T08:34:11;98866.66;;;-1.03;82.51
51259;BME280;37327;54.254;18.504;2023-03-07T08:37:29;98857.80;;;-0.94;82.54
51259;BME280;37327;54.254;18.504;2023-03-07T08:40:46;98838.36;;;-0.85;81.93
51259;BME280;37327;54.254;18.504;2023-03-07T08:44:04;98837.15;;;-0.72;81.72
51259;BME280;37327;54.254;18.504;2023-03-07T08:47:21;98827.55;;;-0.55;81.32
51259;BME280;37327;54.254;18.504;2023-03-07T08:50:39;98820.20;;;-0.44;81.08
51259;BME280;37327;54.254;18.504;2023-03-07T08:53:57;98810.13;;;-0.40;79.70
51259;BME280;37327;54.254;18.504;2023-03-07T08:57:14;98807.63;;;-0.42;79.84
51259;BME280;37327;54.254;18.504;2023-03-07T09:00:32;98790.80;;;-0.32;80.29
51259;BME280;37327;54.254;18.504;2023-03-07T09:03:49;98786.32;;;-0.32;80.28
51259;BME280;37327;54.254;18.504;2023-03-07T09:07:07;98795.80;;;-0.29;80.20
51259;BME280;37327;54.254;18.504;2023-03-07T09:10:24;98784.44;;;-0.40;79.86
51259;BME280;37327;54.254;18.504;2023-03-07T09:13:43;98767.94;;;-0.51;80.36
51259;BME280;37327;54.254;18.504;2023-03-07T09:17:01;98757.80;;;-0.56;81.38
51259;BME280;37327;54.254;18.504;2023-03-07T09:20:19;98746.67;;;-0.60;81.83
51259;BME280;37327;54.254;18.504;2023-03-07T09:23:37;98737.23;;;-0.62;82.31
51259;BME280;37327;54.254;18.504;2023-03-07T09:26:55;98730.86;;;-0.69;83.12
51259;BME280;37327;54.254;18.504;2023-03-07T09:30:13;98725.85;;;-0.72;84.09
51259;BME280;37327;54.254;18.504;2023-03-07T09:33:31;98724.73;;;-0.70;84.95
51259;BME280;37327;54.254;18.504;2023-03-07T09:36:50;98715.58;;;-0.75;85.45
51259;BME280;37327;54.254;18.504;2023-03-07T09:40:14;98711.56;;;-0.80;86.32
51259;BME280;37327;54.254;18.504;2023-03-07T09:57:45;98681.23;;;-1.03;91.56
51259;BME280;37327;54.254;18.504;2023-03-07T10:00:59;98671.93;;;-1.07;92.48
51259;BME280;37327;54.254;18.504;2023-03-07T10:04:21;98676.76;;;-1.03;93.10
51259;BME280;37327;54.254;18.504;2023-03-07T10:07:43;98668.29;;;-1.06;93.70
51259;BME280;37327;54.254;18.504;2023-03-07T10:18:15;98635.95;;;-0.92;95.13
51259;BME280;37327;54.254;18.504;2023-03-07T10:28:34;98620.86;;;-0.73;96.36
51259;BME280;37327;54.254;18.504;2023-03-07T10:32:05;98611.45;;;-0.68;96.85
51259;BME280;37327;54.254;18.504;2023-03-07T10:35:23;98595.70;;;-0.69;97.12
51259;BME280;37327;54.254;18.504;2023-03-07T10:38:54;98600.88;;;-0.60;97.55
51259;BME280;37327;54.254;18.504;2023-03-07T10:42:16;98589.20;;;-0.49;97.32
51259;BME280;37327;54.254;18.504;2023-03-07T10:45:35;98565.55;;;-0.34;97.59
51259;BME280;37327;54.254;18.504;2023-03-07T10:59:24;98543.63;;;0.07;96.98
51259;BME280;37327;54.254;18.504;2023-03-07T11:02:43;98542.31;;;0.11;96.75
51259;BME280;37327;54.254;18.504;2023-03-07T11:06:01;98526.39;;;0.11;96.55
51259;BME280;37327;54.254;18.504;2023-03-07T11:12:50;98510.48;;;0.11;96.89
51259;BME280;37327;54.254;18.504;2023-03-07T11:16:19;98512.14;;;0.12;97.13
51259;BME280;37327;54.254;18.504;2023-03-07T11:19:42;98515.78;;;0.11;97.37
51259;BME280;37327;54.254;18.504;2023-03-07T11:26:32;98490.05;;;-0.05;98.33
51259;BME280;37327;54.254;18.504;2023-03-07T11:33:35;98479.76;;;-0.16;99.10
51259;BME280;37327;54.254;18.504;2023-03-07T11:37:07;98465.00;;;-0.19;99.57
51259;BME280;37327;54.254;18.504;2023-03-07T11:40:35;98465.00;;;-0.19;99.94
51259;BME280;37327;54.254;18.504;2023-03-07T11:50:53;98451.39;;;-0.16;100.00
51259;BME280;37327;54.254;18.504;2023-03-07T11:57:49;98431.69;;;-0.05;100.00
51259;BME280;37327;54.254;18.504;2023-03-07T12:04:49;98434.00;;;-0.02;100.00
51259;BME280;37327;54.254;18.504;2023-03-07T12:08:24;98439.99;;;0.00;100.00
51259;BME280;37327;54.254;18.504;2023-03-07T12:11:49;98437.00;;;0.03;100.00
51259;BME280;37327;54.254;18.504;2023-03-07T12:22:24;98426.22;;;0.13;100.00
51259;BME280;37327;54.254;18.504;2023-03-07T12:25:44;98421.91;;;0.20;100.00
51259;BME280;37327;54.254;18.504;2023-03-07T12:29:09;98411.29;;;0.28;100.00
51259;BME280;37327;54.254;18.504;2023-03-07T12:32:28;98415.92;;;0.34;100.00
51259;BME280;37327;54.254;18.504;2023-03-07T12:35:53;98412.59;;;0.41;100.00
51259;BME280;37327;54.254;18.504;2023-03-07T12:39:21;98408.61;;;0.45;100.00
51259;BME280;37327;54.254;18.504;2023-03-07T12:46:19;98404.92;;;0.62;100.00
51259;BME280;37327;54.254;18.504;2023-03-07T12:56:50;98396.41;;;0.83;100.00
51259;BME280;37327;54.254;18.504;2023-03-07T13:00:11;98403.19;;;0.94;100.00
51259;BME280;37327;54.254;18.504;2023-03-07T13:07:25;98395.14;;;1.10;100.00
51259;BME280;37327;54.254;18.504;2023-03-07T13:10:32;98392.81;;;1.15;100.00
51259;BME280;37327;54.254;18.504;2023-03-07T13:13:53;98381.98;;;1.17;100.00
51259;BME280;37327;54.254;18.504;2023-03-07T13:17:12;98393.63;;;1.16;100.00
51259;BME280;37327;54.254;18.504;2023-03-07T13:20:37;98380.68;;;1.13;100.00
51259;BME280;37327;54.254;18.504;2023-03-07T13:27:52;98364.56;;;1.14;100.00
51259;BME280;37327;54.254;18.504;2023-03-07T13:37:56;98359.34;;;1.29;100.00
51259;BME280;37327;54.254;18.504;2023-03-07T13:41:42;98353.48;;;1.34;100.00
51259;BME280;37327;54.254;18.504;2023-03-07T13:44:40;98363.41;;;1.40;100.00
51259;BME280;37327;54.254;18.504;2023-03-07T13:47:59;98348.05;;;1.50;100.00
51259;BME280;37327;54.254;18.504;2023-03-07T13:51:16;98342.05;;;1.56;99.99
51259;BME280;37327;54.254;18.504;2023-03-07T13:54:33;98352.32;;;1.60;99.69
51259;BME280;37327;54.254;18.504;2023-03-07T13:57:52;98343.35;;;1.61;99.52
51259;BME280;37327;54.254;18.504;2023-03-07T14:01:17;98335.71;;;1.57;99.27
51259;BME280;37327;54.254;18.504;2023-03-07T14:04:43;98338.74;;;1.54;99.08
51259;BME280;37327;54.254;18.504;2023-03-07T14:08:02;98329.27;;;1.52;99.20
51259;BME280;37327;54.254;18.504;2023-03-07T14:11:31;98337.41;;;1.50;99.29
51259;BME280;37327;54.254;18.504;2023-03-07T14:14:59;98325.14;;;1.49;99.18
51259;BME280;37327;54.254;18.504;2023-03-07T14:22:01;98325.69;;;1.45;99.03
51259;BME280;37327;54.254;18.504;2023-03-07T14:25:27;98325.85;;;1.43;99.13
51259;BME280;37327;54.254;18.504;2023-03-07T14:29:02;98334.17;;;1.40;99.22
51259;BME280;37327;54.254;18.504;2023-03-07T14:32:23;98334.70;;;1.35;99.34
51259;BME280;37327;54.254;18.504;2023-03-07T14:35:43;98342.20;;;1.32;99.52
51259;BME280;37327;54.254;18.504;2023-03-07T14:39:00;98329.25;;;1.29;99.42
51259;BME280;37327;54.254;18.504;2023-03-07T14:45:52;98315.30;;;1.27;99.66
51259;BME280;37327;54.254;18.504;2023-03-07T14:52:42;98320.62;;;1.27;99.96
51259;BME280;37327;54.254;18.504;2023-03-07T14:56:00;98318.62;;;1.29;100.00
51259;BME280;37327;54.254;18.504;2023-03-07T14:59:22;98314.15;;;1.29;100.00
51259;BME280;37327;54.254;18.504;2023-03-07T15:02:46;98296.36;;;1.30;100.00
51259;BME280;37327;54.254;18.504;2023-03-07T15:06:10;98285.55;;;1.31;100.00
51259;BME280;37327;54.254;18.504;2023-03-07T15:09:27;98282.73;;;1.33;100.00
51259;BME280;37327;54.254;18.504;2023-03-07T15:12:50;98287.66;;;1.36;100.00
51259;BME280;37327;54.254;18.504;2023-03-07T15:16:12;98278.50;;;1.38;100.00
51259;BME280;37327;54.254;18.504;2023-03-07T15:19:38;98277.51;;;1.40;100.00
51259;BME280;37327;54.254;18.504;2023-03-07T15:23:05;98278.50;;;1.38;100.00
51259;BME280;37327;54.254;18.504;2023-03-07T15:26:24;98275.02;;;1.38;100.00
51259;BME280;37327;54.254;18.504;2023-03-07T15:29:47;98278.88;;;1.35;100.00
51259;BME280;37327;54.254;18.504;2023-03-07T15:33:14;98266.39;;;1.36;100.00
51259;BME280;37327;54.254;18.504;2023-03-07T15:36:31;98265.41;;;1.37;100.00
51259;BME280;37327;54.254;18.504;2023-03-07T15:40:02;98263.74;;;1.36;100.00
51259;BME280;37327;54.254;18.504;2023-03-07T15:43:29;98254.13;;;1.35;100.00
51259;BME280;37327;54.254;18.504;2023-03-07T15:46:55;98241.82;;;1.34;100.00
51259;BME280;37327;54.254;18.504;2023-03-07T15:50:23;98242.84;;;1.33;100.00
51259;BME280;37327;54.254;18.504;2023-03-07T15:53:43;98249.15;;;1.32;100.00
51259;BME280;37327;54.254;18.504;2023-03-07T15:57:05;98237.70;;;1.31;100.00
51259;BME280;37327;54.254;18.504;2023-03-07T16:03:53;98234.56;;;1.28;100.00
51259;BME280;37327;54.254;18.504;2023-03-07T16:07:16;98236.57;;;1.26;100.00
51259;BME280;37327;54.254;18.504;2023-03-07T16:10:33;98243.90;;;1.24;100.00
51259;BME280;37327;54.254;18.504;2023-03-07T16:13:50;98239.95;;;1.20;100.00
51259;BME280;37327;54.254;18.504;2023-03-07T16:23:12;98218.75;;;1.11;100.00
51259;BME280;37327;54.254;18.504;2023-03-07T16:26:30;98216.09;;;1.11;100.00
51259;BME280;37327;54.254;18.504;2023-03-07T16:29:48;98217.25;;;1.09;100.00
51259;BME280;37327;54.254;18.504;2023-03-07T16:33:10;98227.07;;;1.08;100.00
51259;BME280;37327;54.254;18.504;2023-03-07T16:36:28;98222.09;;;1.05;100.00
51259;BME280;37327;54.254;18.504;2023-03-07T16:39:46;98221.64;;;1.02;100.00
51259;BME280;37327;54.254;18.504;2023-03-07T16:43:03;98216.67;;;0.98;100.00
51259;BME280;37327;54.254;18.504;2023-03-07T16:46:22;98223.99;;;0.96;100.00
51259;BME280;37327;54.254;18.504;2023-03-07T16:49:39;98223.17;;;0.96;100.00
51259;BME280;37327;54.254;18.504;2023-03-07T16:52:57;98219.66;;;0.95;100.00
51259;BME280;37327;54.254;18.504;2023-03-07T16:59:45;98222.21;;;0.89;100.00
51259;BME280;37327;54.254;18.504;2023-03-07T17:03:03;98247.48;;;0.85;100.00
51259;BME280;37327;54.254;18.504;2023-03-07T17:06:21;98263.75;;;0.82;100.00
51259;BME280;37327;54.254;18.504;2023-03-07T17:09:38;98283.70;;;0.77;100.00
51259;BME280;37327;54.254;18.504;2023-03-07T17:12:58;98270.46;;;0.69;100.00
51259;BME280;37327;54.254;18.504;2023-03-07T17:16:17;98298.53;;;0.64;100.00
51259;BME280;37327;54.254;18.504;2023-03-07T17:19:34;98300.41;;;0.55;100.00
51259;BME280;37327;54.254;18.504;2023-03-07T17:22:52;98285.83;;;0.43;100.00
51259;BME280;37327;54.254;18.504;2023-03-07T17:29:42;98276.28;;;0.17;100.00
51259;BME280;37327;54.254;18.504;2023-03-07T17:33:01;98280.61;;;0.10;100.00
51259;BME280;37327;54.254;18.504;2023-03-07T17:36:18;98276.32;;;0.09;100.00
51259;BME280;37327;54.254;18.504;2023-03-07T17:39:36;98262.03;;;0.10;100.00
51259;BME280;37327;54.254;18.504;2023-03-07T17:42:54;98266.20;;;0.12;100.00
51259;BME280;37327;54.254;18.504;2023-03-07T17:46:14;98262.36;;;0.15;100.00
51259;BME280;37327;54.254;18.504;2023-03-07T17:49:35;98270.98;;;0.17;100.00
51259;BME280;37327;54.254;18.504;2023-03-07T17:52:54;98257.55;;;0.18;100.00
51259;BME280;37327;54.254;18.504;2023-03-07T17:56:12;98263.52;;;0.21;100.00
51259;BME280;37327;54.254;18.504;2023-03-07T17:59:30;98271.96;;;0.24;100.00
51259;BME280;37327;54.254;18.504;2023-03-07T18:02:48;98262.98;;;0.25;100.00
51259;BME280;37327;54.254;18.504;2023-03-07T18:06:06;98271.96;;;0.24;100.00
51259;BME280;37327;54.254;18.504;2023-03-07T18:09:24;98268.30;;;0.25;100.00
51259;BME280;37327;54.254;18.504;2023-03-07T18:12:41;98261.18;;;0.26;100.00
51259;BME280;37327;54.254;18.504;2023-03-07T18:16:02;98267.48;;;0.25;100.00
51259;BME280;37327;54.254;18.504;2023-03-07T18:19:20;98268.30;;;0.25;100.00
51259;BME280;37327;54.254;18.504;2023-03-07T18:22:37;98267.48;;;0.25;100.00
51259;BME280;37327;54.254;18.504;2023-03-07T18:25:56;98275.43;;;0.25;100.00
51259;BME280;37327;54.254;18.504;2023-03-07T18:29:13;98278.09;;;0.25;100.00
51259;BME280;37327;54.254;18.504;2023-03-07T18:32:31;98279.76;;;0.26;100.00
51259;BME280;37327;54.254;18.504;2023-03-07T18:35:50;98288.70;;;0.25;100.00
51259;BME280;37327;54.254;18.504;2023-03-07T18:39:08;98297.49;;;0.25;100.00
51259;BME280;37327;54.254;18.504;2023-03-07T18:42:28;98289.36;;;0.27;100.00
51259;BME280;37327;54.254;18.504;2023-03-07T18:45:46;98293.20;;;0.24;100.00
51259;BME280;37327;54.254;18.504;2023-03-07T18:49:04;98281.93;;;0.22;100.00
51259;BME280;37327;54.254;18.504;2023-03-07T18:52:21;98286.90;;;0.17;100.00
51259;BME280;37327;54.254;18.504;2023-03-07T18:55:38;98284.93;;;0.11;100.00
51259;BME280;37327;54.254;18.504;2023-03-07T18:58:57;98286.27;;;0.07;100.00
51259;BME280;37327;54.254;18.504;2023-03-07T19:02:15;98272.67;;;0.02;100.00
51259;BME280;37327;54.254;18.504;2023-03-07T19:05:32;98275.84;;;-0.03;100.00
51259;BME280;37327;54.254;18.504;2023-03-07T19:08:51;98285.14;;;-0.07;100.00
51259;BME280;37327;54.254;18.504;2023-03-07T19:12:09;98281.33;;;-0.13;100.00
51259;BME280;37327;54.254;18.504;2023-03-07T19:15:26;98283.64;;;-0.18;100.00
51259;BME280;37327;54.254;18.504;2023-03-07T19:18:45;98290.27;;;-0.22;100.00
51259;BME280;37327;54.254;18.504;2023-03-07T19:22:02;98291.29;;;-0.23;100.00
51259;BME280;37327;54.254;18.504;2023-03-07T19:25:20;98300.72;;;-0.21;100.00
51259;BME280;37327;54.254;18.504;2023-03-07T19:28:38;98291.44;;;-0.16;100.00
51259;BME280;37327;54.254;18.504;2023-03-07T19:31:56;98299.55;;;-0.18;100.00
51259;BME280;37327;54.254;18.504;2023-03-07T19:35:13;98301.70;;;-0.22;100.00